createdAt,value
2023-07-18T00:01:17.886Z,100488.27
2023-07-18T00:06:22.755Z,100489.42
2023-07-18T00:11:26.600Z,100503.92
2023-07-18T00:16:31.702Z,100508.25
2023-07-18T00:21:35.510Z,100509.48
2023-07-18T00:26:39.729Z,100506.05
2023-07-18T00:31:43.615Z,100517.81
2023-07-18T00:36:47.507Z,100527.48
2023-07-18T00:41:51.949Z,100545.16
2023-07-18T00:46:56.592Z,100555.52
2023-07-18T00:52:02.552Z,100558.35
2023-07-18T00:57:08.714Z,100575.36
2023-07-18T01:02:14.024Z,100583.84
2023-07-18T01:07:17.768Z,100588.79
2023-07-18T01:12:21.662Z,100582.09
2023-07-18T01:17:25.507Z,100578.66
2023-07-18T01:22:29.325Z,100582.18
2023-07-18T01:27:33.226Z,100575.64
2023-07-18T01:32:37.619Z,100578.68
2023-07-18T01:37:41.511Z,100585.52
2023-07-18T01:42:45.460Z,100589.26
2023-07-18T01:47:50.283Z,100596.98
2023-07-18T01:52:54.526Z,100594.17
2023-07-18T01:57:58.323Z,100592.08
2023-07-18T02:03:03.039Z,100603.65
2023-07-18T02:08:07.112Z,100617.45
2023-07-18T02:13:10.925Z,100627.66
2023-07-18T02:18:14.810Z,100627.77
2023-07-18T02:23:18.672Z,100635.04
2023-07-18T02:28:22.573Z,100643.35
2023-07-18T02:33:26.629Z,100642.98
2023-07-18T02:38:30.615Z,100652.17
2023-07-18T02:43:34.359Z,100658.17
2023-07-18T02:48:38.920Z,100658.60
2023-07-18T02:53:42.604Z,100662.84
2023-07-18T02:58:46.333Z,100660.45
2023-07-18T03:03:50.646Z,100663.40
2023-07-18T03:08:54.586Z,100675.55
2023-07-18T03:13:58.369Z,100682.35
2023-07-18T03:19:02.313Z,100681.95
2023-07-18T03:24:09.230Z,100687.17
2023-07-18T03:29:13.120Z,100697.33
2023-07-18T03:34:16.937Z,100707.83
2023-07-18T03:39:22.870Z,100708.23
2023-07-18T03:44:26.950Z,100704.72
2023-07-18T03:49:30.992Z,100703.59
2023-07-18T03:54:35.535Z,100710.82
2023-07-18T03:59:40.141Z,100713.19
2023-07-18T04:04:44.167Z,100722.75
2023-07-18T04:09:48.333Z,100730.48
2023-07-18T04:14:52.580Z,100736.98
2023-07-18T04:20:00.807Z,100737.30
2023-07-18T04:25:04.933Z,100741.70
2023-07-18T04:30:09.886Z,100743.15
2023-07-18T04:35:13.878Z,100747.63
2023-07-18T04:40:17.840Z,100753.64
2023-07-18T04:45:21.581Z,100752.65
2023-07-18T04:50:26.603Z,100752.47
2023-07-18T04:55:32.224Z,100755.98
2023-07-18T05:00:36.737Z,100759.16
2023-07-18T05:05:41.400Z,100757.95
2023-07-18T05:10:46.684Z,100759.45
2023-07-18T05:15:50.750Z,100760.60
2023-07-18T05:20:57.300Z,100760.69
2023-07-18T05:26:01.002Z,100770.20
2023-07-18T05:31:09.921Z,100782.80
2023-07-18T05:36:13.836Z,100788.45
2023-07-18T05:41:17.975Z,100792.98
2023-07-18T05:46:22.338Z,100793.41
2023-07-18T05:51:26.338Z,100787.56
2023-07-18T05:56:30.141Z,100791.92
2023-07-18T06:01:34.020Z,100789.20
2023-07-18T06:06:38.056Z,100789.94
2023-07-18T06:11:41.910Z,100791.27
2023-07-18T06:16:46.739Z,100803.52
2023-07-18T06:21:50.684Z,100807.27
2023-07-18T06:26:54.619Z,100808.53
2023-07-18T06:31:59.563Z,100802.55
2023-07-18T06:37:11.441Z,100806.88
2023-07-18T06:42:15.893Z,100811.84
2023-07-18T06:47:19.936Z,100809.79
2023-07-18T06:52:23.784Z,100809.63
2023-07-18T06:57:27.580Z,100809.66
2023-07-18T07:02:31.523Z,100805.88
2023-07-18T07:07:35.440Z,100805.95
2023-07-18T07:12:42.769Z,100806.11
2023-07-18T07:17:46.579Z,100810.84
2023-07-18T07:22:50.556Z,100811.02
2023-07-18T07:27:55.102Z,100811.17
2023-07-18T07:32:59.105Z,100802.50
2023-07-18T07:38:03.547Z,100799.57
2023-07-18T07:43:07.332Z,100801.79
2023-07-18T07:48:11.163Z,100801.45
2023-07-18T07:53:14.962Z,100798.73
2023-07-18T07:58:18.603Z,100800.42
2023-07-18T08:03:22.361Z,100795.59
2023-07-18T08:08:26.944Z,100798.42
2023-07-18T08:13:30.702Z,100792.95
2023-07-18T08:18:35.957Z,100792.83
2023-07-18T08:23:40.243Z,100791.75
2023-07-18T08:28:43.998Z,100783.75
2023-07-18T08:33:47.840Z,100780.12
2023-07-18T08:38:51.762Z,100779.64
2023-07-18T08:43:56.760Z,100773.55
2023-07-18T08:49:01.489Z,100760.33
2023-07-18T08:54:05.523Z,100759.64
2023-07-18T08:59:09.471Z,100754.05
2023-07-18T09:04:13.439Z,100759.41
2023-07-18T09:09:22.704Z,100754.16
2023-07-18T09:14:31.357Z,100746.57
2023-07-18T09:19:37.254Z,100741.20
2023-07-18T09:24:42.526Z,100739.23
2023-07-18T09:29:47.554Z,100738.24
2023-07-18T09:34:59.167Z,100731.60
2023-07-18T09:40:03.767Z,100729.61
2023-07-18T09:50:15.498Z,100713.86
2023-07-18T09:55:28.526Z,100710.18
2023-07-18T10:00:32.813Z,100711.23
2023-07-18T10:05:36.517Z,100701.02
2023-07-18T10:10:40.171Z,100698.79
2023-07-18T10:16:17.488Z,100692.83
2023-07-18T10:21:35.069Z,100691.09
2023-07-18T10:26:38.903Z,100684.26
2023-07-18T10:31:42.820Z,100677.70
2023-07-18T10:36:59.380Z,100668.95
2023-07-18T10:42:09.770Z,100658.09
2023-07-18T10:47:22.212Z,100649.60
2023-07-18T10:52:26.184Z,100645.77
2023-07-18T10:57:31.917Z,100632.23
2023-07-18T11:02:43.498Z,100628.29
2023-07-18T11:07:49.573Z,100629.59
2023-07-18T11:12:54.387Z,100618.39
2023-07-18T11:17:58.326Z,100608.02
2023-07-18T11:23:02.314Z,100603.36
2023-07-18T11:28:06.386Z,100594.64
2023-07-18T11:33:17.637Z,100589.25
2023-07-18T11:38:24.527Z,100583.60
2023-07-18T11:43:31.682Z,100571.88
2023-07-18T11:48:35.852Z,100562.14
2023-07-18T11:53:41.176Z,100551.89
2023-07-18T11:58:45.565Z,100547.63
2023-07-18T12:03:52.356Z,100540.94
2023-07-18T12:08:56.138Z,100533.73
2023-07-18T12:14:01.583Z,100530.28
2023-07-18T12:19:05.206Z,100524.90
2023-07-18T12:24:09.072Z,100519.30
2023-07-18T12:29:18.363Z,100520.23
2023-07-18T12:34:22.704Z,100513.38
2023-07-18T12:39:26.482Z,100507.67
2023-07-18T12:44:42.147Z,100498.30
2023-07-18T12:54:52.731Z,100479.98
2023-07-18T12:59:56.525Z,100465.23
2023-07-18T13:05:03.198Z,100460.77
2023-07-18T13:10:07.705Z,100456.42
2023-07-18T13:15:11.718Z,100447.63
2023-07-18T13:20:17.225Z,100440.32
2023-07-18T13:25:21.664Z,100444.77
2023-07-18T13:30:26.027Z,100436.45
2023-07-18T13:35:29.924Z,100453.33
2023-07-18T13:40:33.627Z,100470.03
2023-07-18T13:45:37.264Z,100461.55
2023-07-18T13:50:41.700Z,100446.06
2023-07-18T13:55:46.357Z,100433.55
2023-07-18T14:00:50.228Z,100416.58
2023-07-18T14:05:54.796Z,100406.17
2023-07-18T14:10:58.548Z,100415.83
2023-07-18T14:16:02.607Z,100414.29
2023-07-18T14:21:06.875Z,100401.00
2023-07-18T14:26:10.663Z,100403.85
2023-07-18T14:31:15.005Z,100397.41
2023-07-18T14:36:20.649Z,100380.60
2023-07-18T14:41:25.105Z,100365.73
2023-07-18T14:46:28.947Z,100364.41
2023-07-18T14:51:33.851Z,100364.63
2023-07-18T14:56:38.702Z,100369.48
2023-07-18T15:01:44.038Z,100368.20
2023-07-18T15:06:47.925Z,100367.73
2023-07-18T15:11:52.070Z,100369.86
2023-07-18T15:16:58.625Z,100366.55
2023-07-18T15:22:03.167Z,100371.86
2023-07-18T15:27:06.917Z,100364.81
2023-07-18T15:32:10.715Z,100355.77
2023-07-18T15:37:14.424Z,100344.75
2023-07-18T15:42:19.257Z,100326.13
2023-07-18T15:47:29.296Z,100319.42
2023-07-18T15:52:33.258Z,100315.77
2023-07-18T15:57:37.602Z,100309.34
2023-07-18T16:02:41.584Z,100303.69
2023-07-18T16:07:45.769Z,100295.89
2023-07-18T16:12:49.636Z,100290.48
2023-07-18T16:18:04.360Z,100285.96
2023-07-18T16:23:08.392Z,100268.70
2023-07-18T16:28:12.861Z,100240.91
2023-07-18T16:33:16.981Z,100237.98
2023-07-18T16:38:23.098Z,100238.60
2023-07-18T16:43:28.499Z,100228.89
2023-07-18T16:48:33.320Z,100232.45
2023-07-18T16:53:38.300Z,100229.44
2023-07-18T16:58:45.924Z,100225.20
2023-07-18T17:03:49.826Z,100218.63
2023-07-18T17:08:54.212Z,100217.53
2023-07-18T17:13:58.109Z,100221.19
2023-07-18T17:19:02.393Z,100215.73
2023-07-18T17:24:07.289Z,100214.23
2023-07-18T17:29:11.321Z,100210.37
2023-07-18T17:34:16.225Z,100210.27
2023-07-18T17:39:21.220Z,100209.21
2023-07-18T17:44:25.468Z,100200.89
2023-07-18T17:49:30.537Z,100196.98
2023-07-18T17:54:34.616Z,100188.95
2023-07-18T17:59:39.094Z,100195.27
2023-07-18T18:04:43.951Z,100197.98
2023-07-18T18:09:48.156Z,100192.04
2023-07-18T18:14:53.406Z,100183.83
2023-07-18T18:19:57.510Z,100174.83
2023-07-18T18:25:01.783Z,100178.64
2023-07-18T18:30:07.478Z,100189.45
2023-07-18T18:35:12.827Z,100189.46
2023-07-18T18:40:18.594Z,100181.98
2023-07-18T18:45:26.310Z,100185.64
2023-07-18T18:50:30.680Z,100184.11
2023-07-18T18:55:40.033Z,100185.05
2023-07-18T19:00:46.301Z,100185.64
2023-07-18T19:05:50.503Z,100195.40
2023-07-18T19:11:07.179Z,100195.25
2023-07-18T19:16:37.717Z,100186.78
2023-07-18T19:21:44.270Z,100190.46
2023-07-18T19:26:50.704Z,100184.86
2023-07-18T19:31:55.913Z,100179.27
2023-07-18T19:37:02.694Z,100181.33
2023-07-18T19:42:10.002Z,100182.84
2023-07-18T19:47:14.686Z,100183.65
2023-07-18T19:52:19.823Z,100187.11
2023-07-18T19:57:25.515Z,100187.25
2023-07-18T20:02:30.530Z,100186.16
2023-07-18T20:07:34.639Z,100185.73
2023-07-18T20:12:38.882Z,100190.66
2023-07-18T20:17:43.377Z,100190.48
2023-07-18T20:22:47.793Z,100184.04
2023-07-18T20:27:55.228Z,100186.61
2023-07-18T20:33:00.338Z,100183.66
2023-07-18T20:38:05.617Z,100187.89
2023-07-18T20:43:10.232Z,100197.89
2023-07-18T20:48:15.159Z,100190.26
2023-07-18T20:53:19.592Z,100192.05
2023-07-18T20:58:24.577Z,100201.34
2023-07-18T21:03:29.280Z,100202.27
2023-07-18T21:08:33.210Z,100195.28
2023-07-18T21:13:37.009Z,100182.48
2023-07-18T21:18:40.816Z,100182.21
2023-07-18T21:23:44.749Z,100177.66
2023-07-18T21:29:03.104Z,100177.17
2023-07-18T21:34:08.850Z,100171.94
2023-07-18T21:39:12.610Z,100171.04
2023-07-18T21:44:16.356Z,100170.64
2023-07-18T21:49:20.173Z,100175.46
2023-07-18T21:54:23.931Z,100166.39
2023-07-18T21:59:27.688Z,100167.48
2023-07-18T22:04:31.913Z,100167.56
2023-07-18T22:09:36.457Z,100170.41
2023-07-18T22:14:40.319Z,100171.71
2023-07-18T22:19:44.633Z,100167.60
2023-07-18T22:24:48.854Z,100163.56
2023-07-18T22:29:53.271Z,100161.86
2023-07-18T22:34:57.077Z,100158.93
2023-07-18T22:40:00.896Z,100151.61
2023-07-18T22:45:05.193Z,100149.17
2023-07-18T22:50:09.846Z,100137.95
2023-07-18T22:55:13.732Z,100127.98
2023-07-18T23:00:30.379Z,100127.46
2023-07-18T23:05:34.243Z,100122.06
2023-07-18T23:10:37.896Z,100112.38
2023-07-18T23:15:41.727Z,100102.77
2023-07-18T23:20:45.868Z,100105.05
2023-07-18T23:25:49.560Z,100095.48
2023-07-18T23:30:53.434Z,100090.75
2023-07-18T23:35:57.152Z,100078.59
2023-07-18T23:41:00.975Z,100077.35
2023-07-18T23:46:05.231Z,100076.18
2023-07-18T23:51:08.855Z,100072.91
2023-07-18T23:56:12.529Z,100062.11
